Terminal Aerodrome Forecast
Issued by NWS Sterling, VA

Current Version | Previous Version | Graphics & Text | Print | Product List | Glossary On
Versions: 1 2 3 4 5 6 7 8 9 10 11 12 13 14 15 16 17 18 19 20 21 22 23 24 25 26 27 28 29
000
FTUS41 KLWX 130900 AAA
TAFDCA
TAF AMD
KDCA 130900Z 1309/1406 VRB03KT P6SM BKN250 WS020/20035KT
     FM131200 19005KT P6SM SCT250
     FM131500 20010KT P6SM FEW250=

USA.gov is the U.S. government's official web portal to all federal, state and local government web resources and services.